sensor_id;sensor_type;location;lat;lon;timestamp;pressure;altitude;pressure_sealevel;temperature;humidity
28310;BME280;15571;50.974;13.936;2022-11-20T00:29:51;99824.31;;;-3.34;100.00
28310;BME280;15571;50.974;13.936;2022-11-20T00:32:57;99830.25;;;-3.35;100.00
28310;BME280;15571;50.974;13.936;2022-11-20T00:36:00;99842.09;;;-3.37;100.00
28310;BME280;15571;50.974;13.936;2022-11-20T00:39:07;99846.28;;;-3.39;100.00
28310;BME280;15571;50.974;13.936;2022-11-20T00:42:09;99845.31;;;-3.41;100.00
28310;BME280;15571;50.974;13.936;2022-11-20T00:45:14;99839.28;;;-3.43;100.00
28310;BME280;15571;50.974;13.936;2022-11-20T00:48:16;99847.75;;;-3.44;100.00
28310;BME280;15571;50.974;13.936;2022-11-20T00:51:19;99842.66;;;-3.44;100.00
28310;BME280;15571;50.974;13.936;2022-11-20T00:54:22;99838.31;;;-3.45;100.00
28310;BME280;15571;50.974;13.936;2022-11-20T00:57:24;99836.47;;;-3.48;100.00
28310;BME280;15571;50.974;13.936;2022-11-20T01:00:31;99838.97;;;-3.49;100.00
28310;BME280;15571;50.974;13.936;2022-11-20T01:03:35;99834.63;;;-3.52;100.00
28310;BME280;15571;50.974;13.936;2022-11-20T01:06:37;99845.84;;;-3.48;100.00
28310;BME280;15571;50.974;13.936;2022-11-20T01:09:40;99839.13;;;-3.46;100.00
28310;BME280;15571;50.974;13.936;2022-11-20T01:12:42;99843.34;;;-3.47;100.00
28310;BME280;15571;50.974;13.936;2022-11-20T01:16:07;99834.75;;;-3.49;100.00
28310;BME280;15571;50.974;13.936;2022-11-20T01:19:10;99844.09;;;-3.49;100.00
28310;BME280;15571;50.974;13.936;2022-11-20T01:22:15;99846.59;;;-3.51;100.00
28310;BME280;15571;50.974;13.936;2022-11-20T01:25:17;99840.53;;;-3.53;100.00
28310;BME280;15571;50.974;13.936;2022-11-20T01:28:19;99835.34;;;-3.54;100.00
28310;BME280;15571;50.974;13.936;2022-11-20T01:31:24;99835.34;;;-3.54;100.00
28310;BME280;15571;50.974;13.936;2022-11-20T01:34:26;99838.72;;;-3.55;100.00
28310;BME280;15571;50.974;13.936;2022-11-20T01:37:28;99837.03;;;-3.55;100.00
28310;BME280;15571;50.974;13.936;2022-11-20T01:40:31;99826.72;;;-3.56;100.00
28310;BME280;15571;50.974;13.936;2022-11-20T01:43:33;99830.25;;;-3.54;100.00
28310;BME280;15571;50.974;13.936;2022-11-20T01:46:39;99820.66;;;-3.58;100.00
28310;BME280;15571;50.974;13.936;2022-11-20T01:49:42;99821.47;;;-3.60;100.00
28310;BME280;15571;50.974;13.936;2022-11-20T01:52:47;99818.09;;;-3.58;100.00
28310;BME280;15571;50.974;13.936;2022-11-20T01:55:52;99811.16;;;-3.61;100.00
28310;BME280;15571;50.974;13.936;2022-11-20T01:58:58;99820.09;;;-3.71;100.00
28310;BME280;15571;50.974;13.936;2022-11-20T02:02:03;99822.66;;;-3.71;100.00
28310;BME280;15571;50.974;13.936;2022-11-20T02:05:09;99825.16;;;-3.72;100.00
28310;BME280;15571;50.974;13.936;2022-11-20T02:08:14;99817.47;;;-3.72;100.00
28310;BME280;15571;50.974;13.936;2022-11-20T02:11:20;99819.25;;;-3.71;100.00
28310;BME280;15571;50.974;13.936;2022-11-20T02:14:26;99812.31;;;-3.74;100.00
28310;BME280;15571;50.974;13.936;2022-11-20T02:17:28;99809.66;;;-3.76;100.00
28310;BME280;15571;50.974;13.936;2022-11-20T02:20:34;99807.09;;;-3.76;100.00
28310;BME280;15571;50.974;13.936;2022-11-20T02:23:39;99808.81;;;-3.76;100.00
28310;BME280;15571;50.974;13.936;2022-11-20T02:26:49;99814.72;;;-3.77;100.00
28310;BME280;15571;50.974;13.936;2022-11-20T02:29:52;99807.91;;;-3.77;100.00
28310;BME280;15571;50.974;13.936;2022-11-20T02:32:55;99812.16;;;-3.77;100.00
28310;BME280;15571;50.974;13.936;2022-11-20T02:35:58;99805.28;;;-3.78;100.00
28310;BME280;15571;50.974;13.936;2022-11-20T02:39:00;99795.88;;;-3.79;100.00
28310;BME280;15571;50.974;13.936;2022-11-20T02:42:03;99800.13;;;-3.80;100.00
28310;BME280;15571;50.974;13.936;2022-11-20T02:45:06;99800.03;;;-3.81;100.00
28310;BME280;15571;50.974;13.936;2022-11-20T02:48:08;99809.34;;;-3.83;100.00
28310;BME280;15571;50.974;13.936;2022-11-20T02:51:11;99803.28;;;-3.85;100.00
28310;BME280;15571;50.974;13.936;2022-11-20T02:54:13;99803.28;;;-3.85;100.00
28310;BME280;15571;50.974;13.936;2022-11-20T02:57:16;99796.25;;;-3.89;100.00
28310;BME280;15571;50.974;13.936;2022-11-20T03:00:19;99804.59;;;-3.94;100.00
28310;BME280;15571;50.974;13.936;2022-11-20T03:03:21;99793.47;;;-3.94;100.00
28310;BME280;15571;50.974;13.936;2022-11-20T03:06:23;99799.28;;;-3.98;100.00
28310;BME280;15571;50.974;13.936;2022-11-20T03:09:26;99790.66;;;-4.00;100.00
28310;BME280;15571;50.974;13.936;2022-11-20T03:12:30;99792.31;;;-4.01;100.00
28310;BME280;15571;50.974;13.936;2022-11-20T03:15:32;99788.84;;;-4.03;100.00
28310;BME280;15571;50.974;13.936;2022-11-20T03:18:34;99787.09;;;-4.04;100.00
28310;BME280;15571;50.974;13.936;2022-11-20T03:21:36;99786.94;;;-4.07;100.00
28310;BME280;15571;50.974;13.936;2022-11-20T03:24:42;99797.16;;;-4.07;100.00
28310;BME280;15571;50.974;13.936;2022-11-20T03:27:51;99788.63;;;-4.08;100.00
28310;BME280;15571;50.974;13.936;2022-11-20T03:30:53;99790.28;;;-4.08;100.00
28310;BME280;15571;50.974;13.936;2022-11-20T03:33:59;99793.75;;;-4.08;100.00
28310;BME280;15571;50.974;13.936;2022-11-20T03:37:01;99786.94;;;-4.07;100.00
28310;BME280;15571;50.974;13.936;2022-11-20T03:40:05;99789.50;;;-4.07;100.00
28310;BME280;15571;50.974;13.936;2022-11-20T03:43:13;99785.91;;;-4.11;100.00
28310;BME280;15571;50.974;13.936;2022-11-20T03:46:19;99786.66;;;-4.13;100.00
28310;BME280;15571;50.974;13.936;2022-11-20T03:49:21;99783.16;;;-4.15;100.00
28310;BME280;15571;50.974;13.936;2022-11-20T03:52:23;99790.81;;;-4.15;100.00
28310;BME280;15571;50.974;13.936;2022-11-20T03:55:25;99791.63;;;-4.16;100.00
28310;BME280;15571;50.974;13.936;2022-11-20T03:58:32;99793.22;;;-4.18;100.00
28310;BME280;15571;50.974;13.936;2022-11-20T04:01:35;99790.66;;;-4.18;100.00
28310;BME280;15571;50.974;13.936;2022-11-20T04:04:37;99786.34;;;-4.19;100.00
28310;BME280;15571;50.974;13.936;2022-11-20T04:07:40;99784.59;;;-4.20;100.00
28310;BME280;15571;50.974;13.936;2022-11-20T04:10:42;99782.72;;;-4.25;100.00
28310;BME280;15571;50.974;13.936;2022-11-20T04:13:47;99782.66;;;-4.26;100.00
28310;BME280;15571;50.974;13.936;2022-11-20T04:16:49;99775.84;;;-4.26;100.00
28310;BME280;15571;50.974;13.936;2022-11-20T04:19:51;99782.56;;;-4.28;100.00
28310;BME280;15571;50.974;13.936;2022-11-20T04:22:54;99778.19;;;-4.30;100.00
28310;BME280;15571;50.974;13.936;2022-11-20T04:26:00;99775.59;;;-4.32;100.00
28310;BME280;15571;50.974;13.936;2022-11-20T04:29:09;99765.25;;;-4.33;100.00
28310;BME280;15571;50.974;13.936;2022-11-20T04:32:18;99763.59;;;-4.33;100.00
28310;BME280;15571;50.974;13.936;2022-11-20T04:35:20;99768.72;;;-4.33;100.00
28310;BME280;15571;50.974;13.936;2022-11-20T04:38:25;99766.06;;;-4.34;100.00
28310;BME280;15571;50.974;13.936;2022-11-20T04:41:29;99759.13;;;-4.37;100.00
28310;BME280;15571;50.974;13.936;2022-11-20T04:44:33;99758.34;;;-4.36;100.00
28310;BME280;15571;50.974;13.936;2022-11-20T04:47:35;99758.19;;;-4.39;100.00
28310;BME280;15571;50.974;13.936;2022-11-20T04:50:39;99756.44;;;-4.40;100.00
28310;BME280;15571;50.974;13.936;2022-11-20T04:53:42;99747.84;;;-4.42;100.00
28310;BME280;15571;50.974;13.936;2022-11-20T04:56:44;99747.84;;;-4.42;100.00
28310;BME280;15571;50.974;13.936;2022-11-20T04:59:48;99756.44;;;-4.40;100.00
28310;BME280;15571;50.974;13.936;2022-11-20T05:02:50;99753.81;;;-4.42;100.00
28310;BME280;15571;50.974;13.936;2022-11-20T05:05:55;99751.19;;;-4.43;100.00
28310;BME280;15571;50.974;13.936;2022-11-20T05:08:58;99750.97;;;-4.48;100.00
28310;BME280;15571;50.974;13.936;2022-11-20T05:12:01;99752.53;;;-4.51;100.00
28310;BME280;15571;50.974;13.936;2022-11-20T05:15:05;99757.47;;;-4.55;100.00
28310;BME280;15571;50.974;13.936;2022-11-20T05:18:07;99763.22;;;-4.59;100.00
28310;BME280;15571;50.974;13.936;2022-11-20T05:21:11;99766.53;;;-4.61;100.00
28310;BME280;15571;50.974;13.936;2022-11-20T05:24:13;99765.66;;;-4.62;100.00
28310;BME280;15571;50.974;13.936;2022-11-20T05:27:16;99762.22;;;-4.62;100.00
28310;BME280;15571;50.974;13.936;2022-11-20T05:30:19;99753.69;;;-4.63;100.00
28310;BME280;15571;50.974;13.936;2022-11-20T05:33:21;99755.28;;;-4.65;100.00
28310;BME280;15571;50.974;13.936;2022-11-20T05:36:24;99751.78;;;-4.67;100.00
28310;BME280;15571;50.974;13.936;2022-11-20T05:39:27;99748.41;;;-4.66;100.00
28310;BME280;15571;50.974;13.936;2022-11-20T05:42:30;99746.66;;;-4.67;100.00
28310;BME280;15571;50.974;13.936;2022-11-20T05:45:33;99742.34;;;-4.68;100.00
28310;BME280;15571;50.974;13.936;2022-11-20T05:48:36;99738.03;;;-4.69;100.00
28310;BME280;15571;50.974;13.936;2022-11-20T05:51:38;99741.41;;;-4.70;100.00
28310;BME280;15571;50.974;13.936;2022-11-20T05:54:40;99735.38;;;-4.72;100.00
28310;BME280;15571;50.974;13.936;2022-11-20T05:57:42;99739.69;;;-4.71;100.00
28310;BME280;15571;50.974;13.936;2022-11-20T06:00:46;99743.88;;;-4.72;100.00
28310;BME280;15571;50.974;13.936;2022-11-20T06:03:48;99745.59;;;-4.72;100.00
28310;BME280;15571;50.974;13.936;2022-11-20T06:06:51;99737.03;;;-4.73;100.00
28310;BME280;15571;50.974;13.936;2022-11-20T06:09:53;99739.53;;;-4.74;100.00
28310;BME280;15571;50.974;13.936;2022-11-20T06:12:56;99737.91;;;-4.72;100.00
28310;BME280;15571;50.974;13.936;2022-11-20T06:16:00;99735.38;;;-4.72;100.00
28310;BME280;15571;50.974;13.936;2022-11-20T06:19:03;99738.72;;;-4.73;100.00
28310;BME280;15571;50.974;13.936;2022-11-20T06:22:06;99741.34;;;-4.72;100.00
28310;BME280;15571;50.974;13.936;2022-11-20T06:25:08;99742.13;;;-4.73;100.00
28310;BME280;15571;50.974;13.936;2022-11-20T06:28:11;99742.88;;;-4.75;100.00
28310;BME280;15571;50.974;13.936;2022-11-20T06:31:17;99734.19;;;-4.79;100.00
28310;BME280;15571;50.974;13.936;2022-11-20T06:34:23;99735.84;;;-4.79;100.00
28310;BME280;15571;50.974;13.936;2022-11-20T06:37:26;99731.63;;;-4.79;100.00
28310;BME280;15571;50.974;13.936;2022-11-20T06:40:28;99726.59;;;-4.77;100.00
28310;BME280;15571;50.974;13.936;2022-11-20T06:43:34;99725.78;;;-4.76;100.00
28310;BME280;15571;50.974;13.936;2022-11-20T06:46:39;99723.41;;;-4.73;100.00
28310;BME280;15571;50.974;13.936;2022-11-20T06:49:45;99720.09;;;-4.71;100.00
28310;BME280;15571;50.974;13.936;2022-11-20T06:52:47;99726.06;;;-4.70;100.00
28310;BME280;15571;50.974;13.936;2022-11-20T06:55:49;99719.38;;;-4.68;100.00
28310;BME280;15571;50.974;13.936;2022-11-20T06:58:52;99722.88;;;-4.66;100.00
28310;BME280;15571;50.974;13.936;2022-11-20T07:01:56;99711.06;;;-4.64;100.00
28310;BME280;15571;50.974;13.936;2022-11-20T07:05:03;99712.81;;;-4.63;100.00
28310;BME280;15571;50.974;13.936;2022-11-20T07:08:08;99715.44;;;-4.61;100.00
28310;BME280;15571;50.974;13.936;2022-11-20T07:11:11;99719.81;;;-4.59;100.00
28310;BME280;15571;50.974;13.936;2022-11-20T07:14:13;99711.50;;;-4.55;100.00
28310;BME280;15571;50.974;13.936;2022-11-20T07:17:17;99708.19;;;-4.52;100.00
28310;BME280;15571;50.974;13.936;2022-11-20T07:20:19;99711.75;;;-4.48;100.00
28310;BME280;15571;50.974;13.936;2022-11-20T07:23:22;99711.13;;;-4.44;100.00
28310;BME280;15571;50.974;13.936;2022-11-20T07:26:24;99706.97;;;-4.42;100.00
28310;BME280;15571;50.974;13.936;2022-11-20T07:29:30;99711.34;;;-4.40;100.00
28310;BME280;15571;50.974;13.936;2022-11-20T07:32:33;99703.88;;;-4.35;100.00
28310;BME280;15571;50.974;13.936;2022-11-20T07:35:35;99701.53;;;-4.30;100.00
28310;BME280;15571;50.974;13.936;2022-11-20T07:38:38;99707.81;;;-4.24;100.00
28310;BME280;15571;50.974;13.936;2022-11-20T07:41:40;99699.53;;;-4.18;100.00
28310;BME280;15571;50.974;13.936;2022-11-20T07:44:46;99693.75;;;-4.14;100.00
28310;BME280;15571;50.974;13.936;2022-11-20T07:47:50;99686.28;;;-4.09;100.00
28310;BME280;15571;50.974;13.936;2022-11-20T07:50:53;99690.88;;;-4.02;100.00
28310;BME280;15571;50.974;13.936;2022-11-20T07:53:55;99681.88;;;-3.94;100.00
28310;BME280;15571;50.974;13.936;2022-11-20T07:57:01;99683.88;;;-3.86;100.00
28310;BME280;15571;50.974;13.936;2022-11-20T08:00:04;99677.25;;;-3.81;100.00
28310;BME280;15571;50.974;13.936;2022-11-20T08:03:14;99670.69;;;-3.76;100.00
28310;BME280;15571;50.974;13.936;2022-11-20T08:06:16;99681.16;;;-3.70;100.00
28310;BME280;15571;50.974;13.936;2022-11-20T08:09:19;99682.25;;;-3.65;100.00
28310;BME280;15571;50.974;13.936;2022-11-20T08:12:21;99678.19;;;-3.60;100.00
28310;BME280;15571;50.974;13.936;2022-11-20T08:15:40;99677.63;;;-3.52;100.00
28310;BME280;15571;50.974;13.936;2022-11-20T08:18:44;99670.22;;;-3.46;100.00
28310;BME280;15571;50.974;13.936;2022-11-20T08:21:46;99679.91;;;-3.39;100.00
28310;BME280;15571;50.974;13.936;2022-11-20T08:24:54;99681.00;;;-3.34;100.00
28310;BME280;15571;50.974;13.936;2022-11-20T08:27:59;99676.13;;;-3.28;100.00
28310;BME280;15571;50.974;13.936;2022-11-20T08:31:02;99679.84;;;-3.19;100.00
28310;BME280;15571;50.974;13.936;2022-11-20T08:34:06;99677.53;;;-3.13;100.00
28310;BME280;15571;50.974;13.936;2022-11-20T08:37:08;99680.41;;;-3.05;100.00
28310;BME280;15571;50.974;13.936;2022-11-20T08:40:11;99668.75;;;-2.99;100.00
28310;BME280;15571;50.974;13.936;2022-11-20T08:43:13;99669.78;;;-2.93;100.00
28310;BME280;15571;50.974;13.936;2022-11-20T08:46:18;99668.28;;;-2.88;100.00
28310;BME280;15571;50.974;13.936;2022-11-20T08:49:22;99674.47;;;-2.83;100.00
28310;BME280;15571;50.974;13.936;2022-11-20T08:52:24;99674.59;;;-2.80;100.00
28310;BME280;15571;50.974;13.936;2022-11-20T08:55:29;99672.06;;;-2.78;100.00
28310;BME280;15571;50.974;13.936;2022-11-20T08:58:32;99664.56;;;-2.74;100.00
28310;BME280;15571;50.974;13.936;2022-11-20T09:01:34;99658.72;;;-2.71;100.00
28310;BME280;15571;50.974;13.936;2022-11-20T09:04:38;99652.97;;;-2.66;100.00
28310;BME280;15571;50.974;13.936;2022-11-20T09:07:40;99649.69;;;-2.61;100.00
28310;BME280;15571;50.974;13.936;2022-11-20T09:10:45;99648.19;;;-2.56;100.00
28310;BME280;15571;50.974;13.936;2022-11-20T09:13:48;99641.53;;;-2.51;100.00
28310;BME280;15571;50.974;13.936;2022-11-20T09:16:50;99640.84;;;-2.47;100.00
28310;BME280;15571;50.974;13.936;2022-11-20T09:19:53;99638.50;;;-2.41;100.00
28310;BME280;15571;50.974;13.936;2022-11-20T09:22:55;99642.13;;;-2.36;100.00
28310;BME280;15571;50.974;13.936;2022-11-20T09:26:04;99637.22;;;-2.29;100.00
28310;BME280;15571;50.974;13.936;2022-11-20T09:29:06;99648.63;;;-2.21;100.00
28310;BME280;15571;50.974;13.936;2022-11-20T09:32:10;99641.97;;;-2.16;100.00
28310;BME280;15571;50.974;13.936;2022-11-20T09:35:13;99636.94;;;-2.13;100.00
28310;BME280;15571;50.974;13.936;2022-11-20T09:38:15;99631.13;;;-2.09;100.00
28310;BME280;15571;50.974;13.936;2022-11-20T09:41:25;99631.31;;;-2.03;100.00
28310;BME280;15571;50.974;13.936;2022-11-20T09:48:03;99626.63;;;-1.90;100.00
28310;BME280;15571;50.974;13.936;2022-11-20T09:51:16;99620.88;;;-1.83;100.00
28310;BME280;15571;50.974;13.936;2022-11-20T09:54:23;99629.56;;;-1.79;100.00
28310;BME280;15571;50.974;13.936;2022-11-20T09:57:29;99636.72;;;-1.70;100.00
28310;BME280;15571;50.974;13.936;2022-11-20T10:00:39;99626.56;;;-1.67;100.00
28310;BME280;15571;50.974;13.936;2022-11-20T10:03:46;99619.06;;;-1.61;100.00
28310;BME280;15571;50.974;13.936;2022-11-20T10:06:55;99619.25;;;-1.55;100.00
28310;BME280;15571;50.974;13.936;2022-11-20T10:09:59;99616.00;;;-1.51;100.00
28310;BME280;15571;50.974;13.936;2022-11-20T10:13:06;99613.56;;;-1.46;100.00
28310;BME280;15571;50.974;13.936;2022-11-20T10:16:15;99617.09;;;-1.43;100.00
28310;BME280;15571;50.974;13.936;2022-11-20T10:19:26;99613.00;;;-1.37;100.00
28310;BME280;15571;50.974;13.936;2022-11-20T10:22:39;99610.59;;;-1.33;100.00
28310;BME280;15571;50.974;13.936;2022-11-20T10:25:48;99600.41;;;-1.30;100.00
28310;BME280;15571;50.974;13.936;2022-11-20T10:28:59;99598.75;;;-1.28;100.00
28310;BME280;15571;50.974;13.936;2022-11-20T10:32:04;99588.69;;;-1.21;100.00
28310;BME280;15571;50.974;13.936;2022-11-20T10:35:16;99587.94;;;-1.19;100.00
28310;BME280;15571;50.974;13.936;2022-11-20T10:38:29;99581.13;;;-1.17;100.00
28310;BME280;15571;50.974;13.936;2022-11-20T10:41:37;99581.19;;;-1.15;100.00
28310;BME280;15571;50.974;13.936;2022-11-20T10:44:43;99588.22;;;-1.10;100.00
28310;BME280;15571;50.974;13.936;2022-11-20T10:48:10;99586.66;;;-1.04;100.00
28310;BME280;15571;50.974;13.936;2022-11-20T10:51:18;99583.28;;;-1.02;100.00
28310;BME280;15571;50.974;13.936;2022-11-20T10:54:32;99585.09;;;-0.99;100.00
28310;BME280;15571;50.974;13.936;2022-11-20T10:57:44;99592.94;;;-0.95;100.00
28310;BME280;15571;50.974;13.936;2022-11-20T11:01:05;99588.84;;;-0.88;100.00
28310;BME280;15571;50.974;13.936;2022-11-20T11:04:10;99585.66;;;-0.81;100.00
28310;BME280;15571;50.974;13.936;2022-11-20T11:07:16;99582.53;;;-0.70;100.00
28310;BME280;15571;50.974;13.936;2022-11-20T11:10:22;99581.91;;;-0.61;100.00
28310;BME280;15571;50.974;13.936;2022-11-20T11:13:26;99577.81;;;-0.56;100.00
28310;BME280;15571;50.974;13.936;2022-11-20T11:16:29;99566.84;;;-0.49;100.00
28310;BME280;15571;50.974;13.936;2022-11-20T11:19:31;99578.19;;;-0.42;100.00
28310;BME280;15571;50.974;13.936;2022-11-20T17:55:13;99446.88;;;-0.81;100.00
28310;BME280;15571;50.974;13.936;2022-11-20T17:58:16;99443.41;;;-0.83;100.00
28310;BME280;15571;50.974;13.936;2022-11-20T18:01:17;99441.50;;;-0.90;100.00
28310;BME280;15571;50.974;13.936;2022-11-20T18:04:21;99446.38;;;-0.99;100.00
28310;BME280;15571;50.974;13.936;2022-11-20T18:07:23;99435.03;;;-1.06;100.00
28310;BME280;15571;50.974;13.936;2022-11-20T18:10:29;99433.28;;;-1.08;100.00
28310;BME280;15571;50.974;13.936;2022-11-20T18:13:34;99439.22;;;-1.10;100.00
28310;BME280;15571;50.974;13.936;2022-11-20T18:16:51;99427.81;;;-1.19;100.00
28310;BME280;15571;50.974;13.936;2022-11-20T18:19:57;99426.00;;;-1.23;100.00
28310;BME280;15571;50.974;13.936;2022-11-20T18:22:59;99419.88;;;-1.27;100.00
28310;BME280;15571;50.974;13.936;2022-11-20T18:26:05;99428.31;;;-1.31;100.00
28310;BME280;15571;50.974;13.936;2022-11-20T18:29:07;99419.69;;;-1.33;100.00
28310;BME280;15571;50.974;13.936;2022-11-20T18:32:09;99417.88;;;-1.37;100.00
28310;BME280;15571;50.974;13.936;2022-11-20T18:35:12;99411.84;;;-1.38;100.00
28310;BME280;15571;50.974;13.936;2022-11-20T18:38:18;99418.72;;;-1.38;100.00
28310;BME280;15571;50.974;13.936;2022-11-20T18:41:23;99428.16;;;-1.37;100.00
28310;BME280;15571;50.974;13.936;2022-11-20T18:44:43;99420.50;;;-1.36;100.00
28310;BME280;15571;50.974;13.936;2022-11-20T18:47:55;99428.16;;;-1.37;100.00
28310;BME280;15571;50.974;13.936;2022-11-20T18:51:03;99433.28;;;-1.37;100.00
28310;BME280;15571;50.974;13.936;2022-11-20T18:54:05;99429.81;;;-1.39;100.00
28310;BME280;15571;50.974;13.936;2022-11-20T18:57:11;99421.16;;;-1.42;100.00
28310;BME280;15571;50.974;13.936;2022-11-20T19:00:14;99423.69;;;-1.43;100.00
28310;BME280;15571;50.974;13.936;2022-11-20T19:03:17;99419.97;;;-1.53;100.00
28310;BME280;15571;50.974;13.936;2022-11-20T19:06:22;99422.44;;;-1.56;100.00
28310;BME280;15571;50.974;13.936;2022-11-20T19:09:24;99410.47;;;-1.57;100.00
28310;BME280;15571;50.974;13.936;2022-11-20T19:12:27;99415.66;;;-1.54;100.00
28310;BME280;15571;50.974;13.936;2022-11-20T19:15:30;99414.66;;;-1.59;100.00
28310;BME280;15571;50.974;13.936;2022-11-20T19:18:35;99418.06;;;-1.60;100.00
28310;BME280;15571;50.974;13.936;2022-11-20T19:21:37;99406.69;;;-1.68;100.00
28310;BME280;15571;50.974;13.936;2022-11-20T19:24:40;99407.44;;;-1.71;100.00
28310;BME280;15571;50.974;13.936;2022-11-20T19:27:44;99410.78;;;-1.74;100.00
28310;BME280;15571;50.974;13.936;2022-11-20T19:30:46;99420.34;;;-1.69;100.00
28310;BME280;15571;50.974;13.936;2022-11-20T19:33:51;99411.75;;;-1.70;100.00
28310;BME280;15571;50.974;13.936;2022-11-20T19:36:56;99407.13;;;-1.82;100.00
28310;BME280;15571;50.974;13.936;2022-11-20T19:40:00;99394.03;;;-1.90;100.00
28310;BME280;15571;50.974;13.936;2022-11-20T19:43:05;99388.88;;;-1.91;100.00
28310;BME280;15571;50.974;13.936;2022-11-20T19:46:07;99382.09;;;-1.89;100.00
28310;BME280;15571;50.974;13.936;2022-11-20T19:49:11;99381.28;;;-1.88;100.00
28310;BME280;15571;50.974;13.936;2022-11-20T19:52:14;99377.78;;;-1.90;100.00
28310;BME280;15571;50.974;13.936;2022-11-20T19:55:16;99371.69;;;-1.94;100.00
28310;BME280;15571;50.974;13.936;2022-11-20T19:58:20;99382.00;;;-1.92;100.00
28310;BME280;15571;50.974;13.936;2022-11-20T20:01:22;99386.31;;;-1.91;100.00
28310;BME280;15571;50.974;13.936;2022-11-20T20:04:30;99383.94;;;-1.85;100.00
28310;BME280;15571;50.974;13.936;2022-11-20T20:07:42;99378.19;;;-1.78;100.00
28310;BME280;15571;50.974;13.936;2022-11-20T20:10:45;99376.50;;;-1.76;100.00
28310;BME280;15571;50.974;13.936;2022-11-20T20:13:48;99375.69;;;-1.75;100.00
28310;BME280;15571;50.974;13.936;2022-11-20T20:16:50;99384.16;;;-1.77;100.00
28310;BME280;15571;50.974;13.936;2022-11-20T20:19:53;99385.81;;;-1.79;100.00
28310;BME280;15571;50.974;13.936;2022-11-20T20:22:57;99384.13;;;-1.79;100.00
28310;BME280;15571;50.974;13.936;2022-11-20T20:26:01;99380.66;;;-1.81;100.00
28310;BME280;15571;50.974;13.936;2022-11-20T20:29:05;99367.84;;;-1.79;100.00
28310;BME280;15571;50.974;13.936;2022-11-20T20:32:10;99368.63;;;-1.82;100.00
28310;BME280;15571;50.974;13.936;2022-11-20T20:35:12;99363.41;;;-1.85;100.00
28310;BME280;15571;50.974;13.936;2022-11-20T20:38:14;99363.13;;;-1.94;100.00
28310;BME280;15571;50.974;13.936;2022-11-20T20:41:22;99365.78;;;-1.91;100.00
28310;BME280;15571;50.974;13.936;2022-11-20T20:44:36;99359.94;;;-1.87;100.00
28310;BME280;15571;50.974;13.936;2022-11-20T20:47:55;99356.53;;;-1.86;100.00
28310;BME280;15571;50.974;13.936;2022-11-20T20:50:58;99360.97;;;-1.80;100.00
28310;BME280;15571;50.974;13.936;2022-11-20T20:54:03;99350.13;;;-1.72;100.00
28310;BME280;15571;50.974;13.936;2022-11-20T20:57:06;99328.03;;;-1.66;100.00
28310;BME280;15571;50.974;13.936;2022-11-20T21:00:17;99329.91;;;-1.61;100.00
28310;BME280;15571;50.974;13.936;2022-11-20T21:03:25;99325.78;;;-1.55;100.00
28310;BME280;15571;50.974;13.936;2022-11-20T21:06:27;99321.63;;;-1.52;100.00
28310;BME280;15571;50.974;13.936;2022-11-20T21:09:32;99309.75;;;-1.47;100.00
28310;BME280;15571;50.974;13.936;2022-11-20T21:12:35;99306.38;;;-1.46;100.00
28310;BME280;15571;50.974;13.936;2022-11-20T21:15:39;99290.09;;;-1.48;100.00
28310;BME280;15571;50.974;13.936;2022-11-20T21:18:41;99283.06;;;-1.53;100.00
28310;BME280;15571;50.974;13.936;2022-11-20T21:21:44;99288.13;;;-1.57;100.00
28310;BME280;15571;50.974;13.936;2022-11-20T21:25:02;99280.44;;;-1.55;100.00
28310;BME280;15571;50.974;13.936;2022-11-20T21:28:06;99291.66;;;-1.51;100.00
28310;BME280;15571;50.974;13.936;2022-11-20T21:31:10;99279.84;;;-1.46;100.00
28310;BME280;15571;50.974;13.936;2022-11-20T21:34:13;99267.13;;;-1.42;100.00
28310;BME280;15571;50.974;13.936;2022-11-20T21:37:18;99255.22;;;-1.39;100.00
28310;BME280;15571;50.974;13.936;2022-11-20T21:40:20;99259.47;;;-1.40;100.00
28310;BME280;15571;50.974;13.936;2022-11-20T21:43:27;99248.34;;;-1.41;100.00
28310;BME280;15571;50.974;13.936;2022-11-20T21:46:31;99241.47;;;-1.42;100.00
28310;BME280;15571;50.974;13.936;2022-11-20T21:49:34;99238.06;;;-1.41;100.00
28310;BME280;15571;50.974;13.936;2022-11-20T21:52:36;99233.88;;;-1.37;100.00
28310;BME280;15571;50.974;13.936;2022-11-20T21:55:38;99229.59;;;-1.36;100.00
28310;BME280;15571;50.974;13.936;2022-11-20T21:58:49;99209.97;;;-1.34;100.00
28310;BME280;15571;50.974;13.936;2022-11-20T22:01:54;99216.06;;;-1.31;100.00
28310;BME280;15571;50.974;13.936;2022-11-20T22:04:56;99211.00;;;-1.29;100.00
28310;BME280;15571;50.974;13.936;2022-11-20T22:07:59;99217.88;;;-1.28;100.00
28310;BME280;15571;50.974;13.936;2022-11-20T22:11:02;99201.69;;;-1.24;100.00
28310;BME280;15571;50.974;13.936;2022-11-20T22:14:07;99200.03;;;-1.22;100.00
28310;BME280;15571;50.974;13.936;2022-11-20T22:17:23;99185.53;;;-1.20;100.00
28310;BME280;15571;50.974;13.936;2022-11-20T22:20:39;99187.34;;;-1.16;100.00
28310;BME280;15571;50.974;13.936;2022-11-20T22:23:43;99175.41;;;-1.14;100.00
28310;BME280;15571;50.974;13.936;2022-11-20T22:26:46;99177.25;;;-1.10;100.00
28310;BME280;15571;50.974;13.936;2022-11-20T22:29:55;99177.28;;;-1.06;100.00
28310;BME280;15571;50.974;13.936;2022-11-20T22:32:58;99159.31;;;-1.06;100.00
28310;BME280;15571;50.974;13.936;2022-11-20T22:36:01;99160.13;;;-1.07;100.00
28310;BME280;15571;50.974;13.936;2022-11-20T22:39:04;99157.56;;;-1.07;100.00
28310;BME280;15571;50.974;13.936;2022-11-20T22:42:06;99153.34;;;-1.05;100.00
28310;BME280;15571;50.974;13.936;2022-11-20T22:45:09;99139.69;;;-1.04;100.00
28310;BME280;15571;50.974;13.936;2022-11-20T22:48:13;99146.63;;;-1.00;100.00
28310;BME280;15571;50.974;13.936;2022-11-20T22:51:18;99142.41;;;-0.98;100.00
28310;BME280;15571;50.974;13.936;2022-11-20T22:54:20;99141.63;;;-0.94;100.00
28310;BME280;15571;50.974;13.936;2022-11-20T22:57:23;99149.34;;;-0.94;100.00